sensor_id;sensor_type;location;lat;lon;timestamp;P1;durP1;ratioP1;P2;durP2;ratioP2
65581;SDS011;52231;40.090;18.348;2024-01-15T00:01:43;17.95;;;9.50;;
65581;SDS011;52231;40.090;18.348;2024-01-15T00:04:11;20.13;;;9.68;;
65581;SDS011;52231;40.090;18.348;2024-01-15T00:06:40;21.75;;;9.93;;
65581;SDS011;52231;40.090;18.348;2024-01-15T00:09:09;24.13;;;11.77;;
65581;SDS011;52231;40.090;18.348;2024-01-15T00:11:37;20.63;;;11.00;;
65581;SDS011;52231;40.090;18.348;2024-01-15T00:14:05;20.48;;;11.82;;
65581;SDS011;52231;40.090;18.348;2024-01-15T00:16:34;22.52;;;11.15;;
65581;SDS011;52231;40.090;18.348;2024-01-15T00:19:02;18.67;;;10.88;;
65581;SDS011;52231;40.090;18.348;2024-01-15T00:21:30;19.13;;;11.05;;
65581;SDS011;52231;40.090;18.348;2024-01-15T00:23:58;21.48;;;11.60;;
65581;SDS011;52231;40.090;18.348;2024-01-15T00:26:26;23.17;;;11.27;;
65581;SDS011;52231;40.090;18.348;2024-01-15T00:29:00;22.88;;;10.82;;
65581;SDS011;52231;40.090;18.348;2024-01-15T00:31:45;26.00;;;10.02;;
65581;SDS011;52231;40.090;18.348;2024-01-15T00:34:14;19.65;;;11.05;;
65581;SDS011;52231;40.090;18.348;2024-01-15T00:36:42;19.77;;;10.25;;
65581;SDS011;52231;40.090;18.348;2024-01-15T00:39:10;24.85;;;9.85;;
65581;SDS011;52231;40.090;18.348;2024-01-15T00:41:38;19.85;;;10.23;;
65581;SDS011;52231;40.090;18.348;2024-01-15T00:44:06;20.55;;;10.27;;
65581;SDS011;52231;40.090;18.348;2024-01-15T00:46:44;19.88;;;9.25;;
65581;SDS011;52231;40.090;18.348;2024-01-15T00:49:13;18.83;;;9.48;;
65581;SDS011;52231;40.090;18.348;2024-01-15T00:51:41;16.65;;;8.05;;
65581;SDS011;52231;40.090;18.348;2024-01-15T00:54:10;19.45;;;7.93;;
65581;SDS011;52231;40.090;18.348;2024-01-15T00:56:38;18.00;;;8.43;;
65581;SDS011;52231;40.090;18.348;2024-01-15T00:59:06;17.40;;;7.40;;
65581;SDS011;52231;40.090;18.348;2024-01-15T01:04:05;16.65;;;7.38;;
65581;SDS011;52231;40.090;18.348;2024-01-15T01:06:33;17.05;;;8.15;;
65581;SDS011;52231;40.090;18.348;2024-01-15T01:09:01;15.93;;;7.68;;
65581;SDS011;52231;40.090;18.348;2024-01-15T01:11:29;14.20;;;7.38;;
65581;SDS011;52231;40.090;18.348;2024-01-15T01:13:58;18.75;;;8.13;;
65581;SDS011;52231;40.090;18.348;2024-01-15T01:16:26;16.50;;;8.10;;
65581;SDS011;52231;40.090;18.348;2024-01-15T01:18:54;15.10;;;7.97;;
65581;SDS011;52231;40.090;18.348;2024-01-15T01:21:22;15.13;;;7.70;;
65581;SDS011;52231;40.090;18.348;2024-01-15T01:23:50;15.68;;;7.60;;
65581;SDS011;52231;40.090;18.348;2024-01-15T01:26:18;16.27;;;8.45;;
65581;SDS011;52231;40.090;18.348;2024-01-15T01:28:46;16.10;;;7.40;;
65581;SDS011;52231;40.090;18.348;2024-01-15T01:31:14;14.50;;;7.45;;
65581;SDS011;52231;40.090;18.348;2024-01-15T01:33:44;15.63;;;7.30;;
65581;SDS011;52231;40.090;18.348;2024-01-15T01:36:12;17.90;;;7.35;;
65581;SDS011;52231;40.090;18.348;2024-01-15T01:38:40;15.77;;;7.40;;
65581;SDS011;52231;40.090;18.348;2024-01-15T01:41:09;17.13;;;7.28;;
65581;SDS011;52231;40.090;18.348;2024-01-15T01:46:05;13.93;;;6.45;;
65581;SDS011;52231;40.090;18.348;2024-01-15T01:48:34;12.95;;;6.78;;
65581;SDS011;52231;40.090;18.348;2024-01-15T01:51:04;16.88;;;6.10;;
65581;SDS011;52231;40.090;18.348;2024-01-15T01:53:32;14.60;;;6.28;;
65581;SDS011;52231;40.090;18.348;2024-01-15T01:56:02;12.27;;;6.10;;
65581;SDS011;52231;40.090;18.348;2024-01-15T01:58:31;15.30;;;5.65;;
65581;SDS011;52231;40.090;18.348;2024-01-15T02:01:01;13.98;;;6.03;;
65581;SDS011;52231;40.090;18.348;2024-01-15T02:03:30;12.65;;;6.30;;
65581;SDS011;52231;40.090;18.348;2024-01-15T02:05:59;14.85;;;6.55;;
65581;SDS011;52231;40.090;18.348;2024-01-15T02:08:28;15.43;;;6.32;;
65581;SDS011;52231;40.090;18.348;2024-01-15T02:10:56;14.30;;;6.03;;
65581;SDS011;52231;40.090;18.348;2024-01-15T02:13:24;11.70;;;5.00;;
65581;SDS011;52231;40.090;18.348;2024-01-15T02:15:52;13.75;;;4.45;;
65581;SDS011;52231;40.090;18.348;2024-01-15T02:18:21;10.77;;;4.95;;
65581;SDS011;52231;40.090;18.348;2024-01-15T02:20:49;15.68;;;5.03;;
65581;SDS011;52231;40.090;18.348;2024-01-15T02:23:17;13.05;;;4.43;;
65581;SDS011;52231;40.090;18.348;2024-01-15T02:25:46;12.23;;;4.05;;
65581;SDS011;52231;40.090;18.348;2024-01-15T02:28:16;13.30;;;4.00;;
65581;SDS011;52231;40.090;18.348;2024-01-15T02:30:45;17.38;;;4.35;;
65581;SDS011;52231;40.090;18.348;2024-01-15T02:33:13;10.52;;;4.30;;
65581;SDS011;52231;40.090;18.348;2024-01-15T02:35:41;13.30;;;4.63;;
65581;SDS011;52231;40.090;18.348;2024-01-15T02:38:09;17.83;;;4.13;;
65581;SDS011;52231;40.090;18.348;2024-01-15T02:40:38;12.88;;;3.70;;
65581;SDS011;52231;40.090;18.348;2024-01-15T02:45:34;12.25;;;3.88;;
65581;SDS011;52231;40.090;18.348;2024-01-15T02:48:02;16.02;;;4.60;;
65581;SDS011;52231;40.090;18.348;2024-01-15T02:50:30;14.57;;;4.70;;
65581;SDS011;52231;40.090;18.348;2024-01-15T02:52:58;15.43;;;4.63;;
65581;SDS011;52231;40.090;18.348;2024-01-15T02:55:27;17.10;;;5.13;;
65581;SDS011;52231;40.090;18.348;2024-01-15T02:57:57;15.38;;;5.03;;
65581;SDS011;52231;40.090;18.348;2024-01-15T03:00:25;13.88;;;5.25;;
65581;SDS011;52231;40.090;18.348;2024-01-15T03:02:56;16.15;;;4.82;;
65581;SDS011;52231;40.090;18.348;2024-01-15T03:05:24;15.98;;;4.50;;
65581;SDS011;52231;40.090;18.348;2024-01-15T03:07:52;13.00;;;4.13;;
65581;SDS011;52231;40.090;18.348;2024-01-15T03:10:20;10.57;;;3.97;;
65581;SDS011;52231;40.090;18.348;2024-01-15T03:12:49;16.77;;;3.85;;
65581;SDS011;52231;40.090;18.348;2024-01-15T03:15:17;17.00;;;4.40;;
65581;SDS011;52231;40.090;18.348;2024-01-15T03:17:46;12.60;;;4.15;;
65581;SDS011;52231;40.090;18.348;2024-01-15T03:20:14;17.10;;;4.45;;
65581;SDS011;52231;40.090;18.348;2024-01-15T03:22:42;17.38;;;5.68;;
65581;SDS011;52231;40.090;18.348;2024-01-15T03:25:10;16.95;;;5.65;;
65581;SDS011;52231;40.090;18.348;2024-01-15T03:27:38;22.63;;;6.90;;
65581;SDS011;52231;40.090;18.348;2024-01-15T03:30:07;12.68;;;4.93;;
65581;SDS011;52231;40.090;18.348;2024-01-15T03:35:03;18.30;;;3.80;;
65581;SDS011;52231;40.090;18.348;2024-01-15T03:37:32;12.32;;;3.78;;
65581;SDS011;52231;40.090;18.348;2024-01-15T03:40:00;11.65;;;3.72;;
65581;SDS011;52231;40.090;18.348;2024-01-15T03:42:28;14.15;;;4.28;;
65581;SDS011;52231;40.090;18.348;2024-01-15T03:44:56;11.45;;;3.83;;
65581;SDS011;52231;40.090;18.348;2024-01-15T03:47:24;12.65;;;4.57;;
65581;SDS011;52231;40.090;18.348;2024-01-15T03:49:52;13.55;;;4.00;;
65581;SDS011;52231;40.090;18.348;2024-01-15T03:52:20;14.02;;;4.32;;
65581;SDS011;52231;40.090;18.348;2024-01-15T03:54:48;15.00;;;4.90;;
65581;SDS011;52231;40.090;18.348;2024-01-15T03:57:16;9.73;;;3.80;;
65581;SDS011;52231;40.090;18.348;2024-01-15T03:59:44;12.20;;;3.90;;
65581;SDS011;52231;40.090;18.348;2024-01-15T04:02:14;17.20;;;4.10;;
65581;SDS011;52231;40.090;18.348;2024-01-15T04:04:43;11.75;;;3.72;;
65581;SDS011;52231;40.090;18.348;2024-01-15T04:07:11;13.02;;;4.07;;
65581;SDS011;52231;40.090;18.348;2024-01-15T04:09:39;11.45;;;3.67;;
65581;SDS011;52231;40.090;18.348;2024-01-15T04:12:07;12.50;;;3.35;;
65581;SDS011;52231;40.090;18.348;2024-01-15T04:14:35;11.45;;;3.60;;
65581;SDS011;52231;40.090;18.348;2024-01-15T04:17:03;13.32;;;3.80;;
65581;SDS011;52231;40.090;18.348;2024-01-15T04:19:31;9.55;;;3.28;;
65581;SDS011;52231;40.090;18.348;2024-01-15T04:22:00;12.25;;;3.55;;
65581;SDS011;52231;40.090;18.348;2024-01-15T04:24:28;15.65;;;3.85;;
65581;SDS011;52231;40.090;18.348;2024-01-15T04:26:56;9.02;;;3.10;;
65581;SDS011;52231;40.090;18.348;2024-01-15T04:29:24;13.00;;;3.85;;
65581;SDS011;52231;40.090;18.348;2024-01-15T04:31:52;14.52;;;3.88;;
65581;SDS011;52231;40.090;18.348;2024-01-15T04:34:21;12.77;;;4.07;;
65581;SDS011;52231;40.090;18.348;2024-01-15T04:36:49;12.52;;;4.40;;
65581;SDS011;52231;40.090;18.348;2024-01-15T04:39:17;16.13;;;4.70;;
65581;SDS011;52231;40.090;18.348;2024-01-15T04:41:45;12.27;;;4.32;;
65581;SDS011;52231;40.090;18.348;2024-01-15T04:44:13;14.90;;;4.70;;
65581;SDS011;52231;40.090;18.348;2024-01-15T04:46:41;17.05;;;4.70;;
65581;SDS011;52231;40.090;18.348;2024-01-15T04:49:11;15.57;;;4.40;;
65581;SDS011;52231;40.090;18.348;2024-01-15T04:51:39;14.27;;;3.88;;
65581;SDS011;52231;40.090;18.348;2024-01-15T04:54:07;16.00;;;3.95;;
65581;SDS011;52231;40.090;18.348;2024-01-15T04:56:35;15.25;;;4.07;;
65581;SDS011;52231;40.090;18.348;2024-01-15T04:59:04;13.27;;;3.92;;
65581;SDS011;52231;40.090;18.348;2024-01-15T05:01:32;12.50;;;4.25;;
65581;SDS011;52231;40.090;18.348;2024-01-15T05:04:00;11.20;;;4.15;;
65581;SDS011;52231;40.090;18.348;2024-01-15T05:06:29;13.68;;;4.00;;
65581;SDS011;52231;40.090;18.348;2024-01-15T05:08:57;10.23;;;3.85;;
65581;SDS011;52231;40.090;18.348;2024-01-15T05:11:25;11.55;;;3.90;;
65581;SDS011;52231;40.090;18.348;2024-01-15T05:13:53;14.32;;;4.03;;
65581;SDS011;52231;40.090;18.348;2024-01-15T05:16:21;12.68;;;3.70;;
65581;SDS011;52231;40.090;18.348;2024-01-15T05:18:49;15.50;;;4.03;;
65581;SDS011;52231;40.090;18.348;2024-01-15T05:21:18;12.13;;;4.07;;
65581;SDS011;52231;40.090;18.348;2024-01-15T05:23:46;14.38;;;4.25;;
65581;SDS011;52231;40.090;18.348;2024-01-15T05:26:14;12.48;;;3.95;;
65581;SDS011;52231;40.090;18.348;2024-01-15T05:28:42;11.02;;;3.63;;
65581;SDS011;52231;40.090;18.348;2024-01-15T05:31:10;13.35;;;4.00;;
65581;SDS011;52231;40.090;18.348;2024-01-15T05:33:38;12.10;;;3.70;;
65581;SDS011;52231;40.090;18.348;2024-01-15T05:36:07;15.18;;;4.35;;
65581;SDS011;52231;40.090;18.348;2024-01-15T05:38:36;20.17;;;4.03;;
65581;SDS011;52231;40.090;18.348;2024-01-15T05:41:04;13.05;;;3.50;;
65581;SDS011;52231;40.090;18.348;2024-01-15T05:43:33;13.98;;;3.63;;
65581;SDS011;52231;40.090;18.348;2024-01-15T05:46:01;15.88;;;3.80;;
65581;SDS011;52231;40.090;18.348;2024-01-15T05:48:30;13.48;;;2.95;;
65581;SDS011;52231;40.090;18.348;2024-01-15T05:50:58;14.50;;;3.47;;
65581;SDS011;52231;40.090;18.348;2024-01-15T05:53:26;10.20;;;3.38;;
65581;SDS011;52231;40.090;18.348;2024-01-15T05:55:54;13.82;;;2.88;;
65581;SDS011;52231;40.090;18.348;2024-01-15T05:58:23;13.27;;;3.17;;
65581;SDS011;52231;40.090;18.348;2024-01-15T06:00:51;7.80;;;3.15;;
65581;SDS011;52231;40.090;18.348;2024-01-15T06:03:19;11.10;;;3.17;;
65581;SDS011;52231;40.090;18.348;2024-01-15T06:05:47;8.55;;;3.05;;
65581;SDS011;52231;40.090;18.348;2024-01-15T06:08:15;14.13;;;3.45;;
65581;SDS011;52231;40.090;18.348;2024-01-15T06:10:43;13.40;;;3.10;;
65581;SDS011;52231;40.090;18.348;2024-01-15T06:13:11;16.50;;;3.42;;
65581;SDS011;52231;40.090;18.348;2024-01-15T06:15:41;14.02;;;3.90;;
65581;SDS011;52231;40.090;18.348;2024-01-15T06:18:09;8.88;;;2.80;;
65581;SDS011;52231;40.090;18.348;2024-01-15T06:20:37;19.25;;;3.92;;
65581;SDS011;52231;40.090;18.348;2024-01-15T06:23:05;12.30;;;2.60;;
65581;SDS011;52231;40.090;18.348;2024-01-15T06:25:33;5.63;;;2.30;;
65581;SDS011;52231;40.090;18.348;2024-01-15T06:28:02;13.65;;;2.53;;
65581;SDS011;52231;40.090;18.348;2024-01-15T06:30:32;12.25;;;2.58;;
65581;SDS011;52231;40.090;18.348;2024-01-15T06:33:00;9.60;;;2.63;;
65581;SDS011;52231;40.090;18.348;2024-01-15T06:35:28;7.60;;;2.15;;
65581;SDS011;52231;40.090;18.348;2024-01-15T06:37:56;12.95;;;2.90;;
65581;SDS011;52231;40.090;18.348;2024-01-15T06:40:24;12.77;;;2.80;;
65581;SDS011;52231;40.090;18.348;2024-01-15T06:42:52;8.07;;;2.42;;
65581;SDS011;52231;40.090;18.348;2024-01-15T06:45:20;9.55;;;2.53;;
65581;SDS011;52231;40.090;18.348;2024-01-15T06:47:48;9.85;;;2.28;;
65581;SDS011;52231;40.090;18.348;2024-01-15T06:50:17;14.60;;;2.67;;
65581;SDS011;52231;40.090;18.348;2024-01-15T06:52:45;14.52;;;3.20;;
65581;SDS011;52231;40.090;18.348;2024-01-15T06:55:13;13.85;;;3.90;;
65581;SDS011;52231;40.090;18.348;2024-01-15T06:57:41;15.20;;;3.10;;
65581;SDS011;52231;40.090;18.348;2024-01-15T07:00:10;12.77;;;3.20;;
65581;SDS011;52231;40.090;18.348;2024-01-15T07:02:38;13.25;;;3.13;;
65581;SDS011;52231;40.090;18.348;2024-01-15T07:05:06;12.07;;;3.20;;
65581;SDS011;52231;40.090;18.348;2024-01-15T07:07:34;15.23;;;3.40;;
65581;SDS011;52231;40.090;18.348;2024-01-15T07:10:05;12.93;;;3.17;;
65581;SDS011;52231;40.090;18.348;2024-01-15T07:12:33;12.63;;;2.80;;
65581;SDS011;52231;40.090;18.348;2024-01-15T07:15:01;11.73;;;3.22;;
65581;SDS011;52231;40.090;18.348;2024-01-15T07:17:32;15.63;;;3.20;;
65581;SDS011;52231;40.090;18.348;2024-01-15T07:20:01;13.65;;;3.33;;
65581;SDS011;52231;40.090;18.348;2024-01-15T07:22:29;14.63;;;3.58;;
65581;SDS011;52231;40.090;18.348;2024-01-15T07:24:57;13.55;;;3.47;;
65581;SDS011;52231;40.090;18.348;2024-01-15T07:27:25;14.90;;;3.20;;
65581;SDS011;52231;40.090;18.348;2024-01-15T07:29:54;14.57;;;3.25;;
65581;SDS011;52231;40.090;18.348;2024-01-15T07:32:23;17.17;;;3.20;;
65581;SDS011;52231;40.090;18.348;2024-01-15T07:34:51;17.95;;;3.78;;
65581;SDS011;52231;40.090;18.348;2024-01-15T07:37:20;16.25;;;3.30;;
65581;SDS011;52231;40.090;18.348;2024-01-15T07:39:47;16.70;;;3.25;;
65581;SDS011;52231;40.090;18.348;2024-01-15T07:42:16;14.05;;;3.58;;
65581;SDS011;52231;40.090;18.348;2024-01-15T07:44:44;12.48;;;4.00;;
65581;SDS011;52231;40.090;18.348;2024-01-15T07:47:12;18.52;;;4.18;;
65581;SDS011;52231;40.090;18.348;2024-01-15T07:49:40;17.58;;;4.15;;
65581;SDS011;52231;40.090;18.348;2024-01-15T07:52:08;17.13;;;4.25;;
65581;SDS011;52231;40.090;18.348;2024-01-15T07:57:05;16.23;;;3.55;;
65581;SDS011;52231;40.090;18.348;2024-01-15T07:59:33;13.13;;;3.30;;
65581;SDS011;52231;40.090;18.348;2024-01-15T08:02:03;15.07;;;3.40;;
65581;SDS011;52231;40.090;18.348;2024-01-15T08:04:32;17.00;;;3.42;;
65581;SDS011;52231;40.090;18.348;2024-01-15T08:07:00;15.57;;;3.70;;
65581;SDS011;52231;40.090;18.348;2024-01-15T08:09:30;14.77;;;3.05;;
65581;SDS011;52231;40.090;18.348;2024-01-15T08:11:58;11.60;;;3.13;;
65581;SDS011;52231;40.090;18.348;2024-01-15T08:14:26;7.22;;;2.67;;
65581;SDS011;52231;40.090;18.348;2024-01-15T08:16:54;12.65;;;2.88;;
65581;SDS011;52231;40.090;18.348;2024-01-15T08:19:22;17.35;;;2.92;;
65581;SDS011;52231;40.090;18.348;2024-01-15T08:21:51;15.32;;;2.95;;
65581;SDS011;52231;40.090;18.348;2024-01-15T08:24:19;12.18;;;2.70;;
65581;SDS011;52231;40.090;18.348;2024-01-15T08:26:48;16.48;;;3.30;;
65581;SDS011;52231;40.090;18.348;2024-01-15T08:29:16;13.95;;;3.08;;
65581;SDS011;52231;40.090;18.348;2024-01-15T08:31:46;16.15;;;4.65;;
65581;SDS011;52231;40.090;18.348;2024-01-15T08:34:14;12.15;;;3.72;;
65581;SDS011;52231;40.090;18.348;2024-01-15T08:36:43;16.02;;;4.43;;
65581;SDS011;52231;40.090;18.348;2024-01-15T08:39:11;13.73;;;3.50;;
65581;SDS011;52231;40.090;18.348;2024-01-15T08:41:39;15.35;;;4.13;;
65581;SDS011;52231;40.090;18.348;2024-01-15T08:44:07;15.63;;;3.53;;
65581;SDS011;52231;40.090;18.348;2024-01-15T08:46:35;13.35;;;3.67;;
65581;SDS011;52231;40.090;18.348;2024-01-15T08:51:31;16.40;;;3.50;;
65581;SDS011;52231;40.090;18.348;2024-01-15T08:53:59;12.07;;;3.53;;
65581;SDS011;52231;40.090;18.348;2024-01-15T08:56:27;17.15;;;3.85;;
65581;SDS011;52231;40.090;18.348;2024-01-15T08:58:55;15.68;;;4.38;;
65581;SDS011;52231;40.090;18.348;2024-01-15T09:01:23;15.70;;;4.25;;
65581;SDS011;52231;40.090;18.348;2024-01-15T09:03:51;14.35;;;3.67;;
65581;SDS011;52231;40.090;18.348;2024-01-15T09:06:19;15.73;;;3.88;;
65581;SDS011;52231;40.090;18.348;2024-01-15T09:08:48;14.75;;;4.00;;
65581;SDS011;52231;40.090;18.348;2024-01-15T09:11:16;12.00;;;3.58;;
65581;SDS011;52231;40.090;18.348;2024-01-15T09:13:44;17.23;;;4.72;;
65581;SDS011;52231;40.090;18.348;2024-01-15T09:16:12;10.57;;;3.25;;
65581;SDS011;52231;40.090;18.348;2024-01-15T09:18:40;17.55;;;4.75;;
65581;SDS011;52231;40.090;18.348;2024-01-15T09:21:08;13.35;;;3.88;;
65581;SDS011;52231;40.090;18.348;2024-01-15T09:23:36;19.75;;;4.80;;
65581;SDS011;52231;40.090;18.348;2024-01-15T09:26:07;12.27;;;3.72;;
65581;SDS011;52231;40.090;18.348;2024-01-15T09:28:36;41.38;;;19.48;;
65581;SDS011;52231;40.090;18.348;2024-01-15T09:31:04;16.27;;;7.38;;
65581;SDS011;52231;40.090;18.348;2024-01-15T09:33:33;16.48;;;5.85;;
65581;SDS011;52231;40.090;18.348;2024-01-15T09:36:02;15.70;;;6.03;;
65581;SDS011;52231;40.090;18.348;2024-01-15T09:38:31;13.85;;;4.55;;
65581;SDS011;52231;40.090;18.348;2024-01-15T09:40:59;22.83;;;7.82;;
65581;SDS011;52231;40.090;18.348;2024-01-15T09:43:28;14.70;;;3.50;;
65581;SDS011;52231;40.090;18.348;2024-01-15T09:45:56;16.58;;;3.42;;
65581;SDS011;52231;40.090;18.348;2024-01-15T09:48:25;15.77;;;5.72;;
65581;SDS011;52231;40.090;18.348;2024-01-15T09:50:53;18.80;;;4.60;;
65581;SDS011;52231;40.090;18.348;2024-01-15T09:53:22;18.85;;;4.60;;
65581;SDS011;52231;40.090;18.348;2024-01-15T09:55:50;21.73;;;6.68;;
65581;SDS011;52231;40.090;18.348;2024-01-15T09:58:20;17.23;;;4.93;;
65581;SDS011;52231;40.090;18.348;2024-01-15T10:00:48;17.23;;;4.72;;
65581;SDS011;52231;40.090;18.348;2024-01-15T10:03:17;16.27;;;5.43;;
65581;SDS011;52231;40.090;18.348;2024-01-15T10:05:45;19.45;;;4.75;;
65581;SDS011;52231;40.090;18.348;2024-01-15T10:08:14;18.98;;;5.05;;
65581;SDS011;52231;40.090;18.348;2024-01-15T10:10:42;18.48;;;3.83;;
65581;SDS011;52231;40.090;18.348;2024-01-15T10:15:39;16.33;;;4.20;;
65581;SDS011;52231;40.090;18.348;2024-01-15T10:18:07;14.38;;;3.70;;
65581;SDS011;52231;40.090;18.348;2024-01-15T10:20:35;14.05;;;4.85;;
65581;SDS011;52231;40.090;18.348;2024-01-15T10:23:03;14.13;;;4.85;;
65581;SDS011;52231;40.090;18.348;2024-01-15T10:25:31;15.18;;;5.32;;
65581;SDS011;52231;40.090;18.348;2024-01-15T10:28:00;14.95;;;3.78;;
65581;SDS011;52231;40.090;18.348;2024-01-15T10:30:29;11.75;;;3.47;;
65581;SDS011;52231;40.090;18.348;2024-01-15T10:33:00;15.32;;;3.10;;
65581;SDS011;52231;40.090;18.348;2024-01-15T10:35:33;21.85;;;7.57;;
65581;SDS011;52231;40.090;18.348;2024-01-15T10:38:02;20.63;;;6.53;;
65581;SDS011;52231;40.090;18.348;2024-01-15T10:42:59;13.50;;;2.90;;
65581;SDS011;52231;40.090;18.348;2024-01-15T10:45:27;11.35;;;2.78;;
65581;SDS011;52231;40.090;18.348;2024-01-15T10:47:55;15.95;;;6.82;;
65581;SDS011;52231;40.090;18.348;2024-01-15T10:50:26;14.38;;;4.18;;
65581;SDS011;52231;40.090;18.348;2024-01-15T10:52:54;10.05;;;3.15;;
65581;SDS011;52231;40.090;18.348;2024-01-15T10:55:23;13.43;;;2.80;;
65581;SDS011;52231;40.090;18.348;2024-01-15T10:57:53;18.63;;;4.93;;
65581;SDS011;52231;40.090;18.348;2024-01-15T11:00:24;14.00;;;5.43;;
65581;SDS011;52231;40.090;18.348;2024-01-15T11:02:52;13.57;;;3.42;;
65581;SDS011;52231;40.090;18.348;2024-01-15T11:05:23;14.70;;;3.25;;
65581;SDS011;52231;40.090;18.348;2024-01-15T11:07:56;10.85;;;2.83;;
65581;SDS011;52231;40.090;18.348;2024-01-15T11:13:22;23.65;;;6.80;;
65581;SDS011;52231;40.090;18.348;2024-01-15T11:16:08;13.48;;;4.47;;
65581;SDS011;52231;40.090;18.348;2024-01-15T11:18:42;23.17;;;7.82;;
65581;SDS011;52231;40.090;18.348;2024-01-15T11:23:46;16.95;;;3.67;;
65581;SDS011;52231;40.090;18.348;2024-01-15T11:26:29;15.15;;;3.72;;
65581;SDS011;52231;40.090;18.348;2024-01-15T11:29:09;13.25;;;3.40;;
65581;SDS011;52231;40.090;18.348;2024-01-15T11:31:57;14.02;;;3.55;;
65581;SDS011;52231;40.090;18.348;2024-01-15T11:37:18;18.67;;;4.63;;
65581;SDS011;52231;40.090;18.348;2024-01-15T11:39:47;23.05;;;4.38;;
65581;SDS011;52231;40.090;18.348;2024-01-15T11:42:15;15.93;;;4.38;;
65581;SDS011;52231;40.090;18.348;2024-01-15T11:47:12;16.15;;;6.32;;
65581;SDS011;52231;40.090;18.348;2024-01-15T11:52:56;15.63;;;4.85;;
65581;SDS011;52231;40.090;18.348;2024-01-15T11:55:30;17.83;;;5.35;;
65581;SDS011;52231;40.090;18.348;2024-01-15T11:58:04;12.75;;;3.45;;
65581;SDS011;52231;40.090;18.348;2024-01-15T12:00:42;11.75;;;2.72;;
65581;SDS011;52231;40.090;18.348;2024-01-15T12:03:15;13.85;;;3.10;;
65581;SDS011;52231;40.090;18.348;2024-01-15T12:05:43;16.98;;;9.27;;
65581;SDS011;52231;40.090;18.348;2024-01-15T12:08:11;14.18;;;5.68;;
65581;SDS011;52231;40.090;18.348;2024-01-15T12:10:40;12.38;;;4.13;;
65581;SDS011;52231;40.090;18.348;2024-01-15T12:13:15;15.10;;;6.57;;
65581;SDS011;52231;40.090;18.348;2024-01-15T12:15:45;14.20;;;3.92;;
65581;SDS011;52231;40.090;18.348;2024-01-15T12:18:17;19.55;;;9.00;;
65581;SDS011;52231;40.090;18.348;2024-01-15T12:21:05;13.07;;;3.95;;
65581;SDS011;52231;40.090;18.348;2024-01-15T12:23:33;9.55;;;3.20;;
65581;SDS011;52231;40.090;18.348;2024-01-15T12:26:01;15.23;;;4.38;;
65581;SDS011;52231;40.090;18.348;2024-01-15T12:30:58;12.93;;;3.90;;
65581;SDS011;52231;40.090;18.348;2024-01-15T12:33:27;15.18;;;5.68;;
65581;SDS011;52231;40.090;18.348;2024-01-15T12:35:56;20.95;;;4.63;;
65581;SDS011;52231;40.090;18.348;2024-01-15T12:38:24;17.70;;;5.47;;
65581;SDS011;52231;40.090;18.348;2024-01-15T12:40:52;16.02;;;4.85;;
65581;SDS011;52231;40.090;18.348;2024-01-15T12:43:22;17.50;;;3.88;;
65581;SDS011;52231;40.090;18.348;2024-01-15T12:45:50;11.38;;;3.33;;
65581;SDS011;52231;40.090;18.348;2024-01-15T12:50:46;21.45;;;9.77;;
65581;SDS011;52231;40.090;18.348;2024-01-15T12:53:15;15.85;;;4.75;;
65581;SDS011;52231;40.090;18.348;2024-01-15T12:55:44;10.77;;;3.60;;
65581;SDS011;52231;40.090;18.348;2024-01-15T12:58:13;23.58;;;11.93;;
65581;SDS011;52231;40.090;18.348;2024-01-15T13:00:42;13.73;;;5.35;;
65581;SDS011;52231;40.090;18.348;2024-01-15T13:05:38;18.45;;;8.15;;
65581;SDS011;52231;40.090;18.348;2024-01-15T13:08:08;16.45;;;4.78;;
65581;SDS011;52231;40.090;18.348;2024-01-15T13:10:37;21.05;;;8.23;;
65581;SDS011;52231;40.090;18.348;2024-01-15T13:13:05;21.60;;;9.15;;
65581;SDS011;52231;40.090;18.348;2024-01-15T13:15:34;16.38;;;5.63;;
65581;SDS011;52231;40.090;18.348;2024-01-15T13:18:03;21.65;;;8.18;;
65581;SDS011;52231;40.090;18.348;2024-01-15T13:20:31;17.23;;;6.95;;
65581;SDS011;52231;40.090;18.348;2024-01-15T13:22:59;15.13;;;5.80;;
65581;SDS011;52231;40.090;18.348;2024-01-15T13:25:30;24.50;;;7.82;;
65581;SDS011;52231;40.090;18.348;2024-01-15T13:27:58;19.55;;;5.97;;
65581;SDS011;52231;40.090;18.348;2024-01-15T13:30:26;22.10;;;12.13;;
65581;SDS011;52231;40.090;18.348;2024-01-15T13:32:55;25.42;;;9.25;;
65581;SDS011;52231;40.090;18.348;2024-01-15T13:35:23;17.73;;;5.00;;
65581;SDS011;52231;40.090;18.348;2024-01-15T13:37:52;26.55;;;6.25;;
65581;SDS011;52231;40.090;18.348;2024-01-15T13:40:25;18.52;;;5.57;;
65581;SDS011;52231;40.090;18.348;2024-01-15T13:42:55;17.08;;;6.50;;
65581;SDS011;52231;40.090;18.348;2024-01-15T13:45:23;22.17;;;8.40;;
65581;SDS011;52231;40.090;18.348;2024-01-15T13:47:51;19.38;;;7.25;;
65581;SDS011;52231;40.090;18.348;2024-01-15T13:50:21;17.90;;;5.32;;
65581;SDS011;52231;40.090;18.348;2024-01-15T13:52:50;18.58;;;6.93;;
65581;SDS011;52231;40.090;18.348;2024-01-15T13:55:18;24.48;;;6.13;;
65581;SDS011;52231;40.090;18.348;2024-01-15T13:57:47;20.55;;;6.88;;
65581;SDS011;52231;40.090;18.348;2024-01-15T14:00:15;24.30;;;7.70;;
65581;SDS011;52231;40.090;18.348;2024-01-15T14:02:47;26.73;;;11.88;;
65581;SDS011;52231;40.090;18.348;2024-01-15T14:07:44;25.85;;;12.90;;
65581;SDS011;52231;40.090;18.348;2024-01-15T14:10:12;20.00;;;6.53;;
65581;SDS011;52231;40.090;18.348;2024-01-15T14:12:40;29.83;;;9.98;;
65581;SDS011;52231;40.090;18.348;2024-01-15T14:15:09;21.40;;;11.38;;
65581;SDS011;52231;40.090;18.348;2024-01-15T14:17:37;16.08;;;6.57;;
65581;SDS011;52231;40.090;18.348;2024-01-15T14:20:06;18.73;;;6.25;;
65581;SDS011;52231;40.090;18.348;2024-01-15T14:22:36;15.98;;;5.75;;
65581;SDS011;52231;40.090;18.348;2024-01-15T14:25:05;16.35;;;4.47;;
65581;SDS011;52231;40.090;18.348;2024-01-15T14:27:34;13.07;;;5.20;;
65581;SDS011;52231;40.090;18.348;2024-01-15T14:30:04;28.65;;;10.88;;
65581;SDS011;52231;40.090;18.348;2024-01-15T14:32:54;20.63;;;8.88;;
65581;SDS011;52231;40.090;18.348;2024-01-15T14:35:22;24.58;;;8.88;;
65581;SDS011;52231;40.090;18.348;2024-01-15T14:37:50;21.00;;;6.70;;
65581;SDS011;52231;40.090;18.348;2024-01-15T14:40:18;26.08;;;11.85;;
65581;SDS011;52231;40.090;18.348;2024-01-15T14:42:47;23.67;;;9.82;;
65581;SDS011;52231;40.090;18.348;2024-01-15T14:45:15;23.20;;;7.53;;
65581;SDS011;52231;40.090;18.348;2024-01-15T14:47:43;19.80;;;7.22;;
65581;SDS011;52231;40.090;18.348;2024-01-15T14:52:39;20.40;;;6.55;;
65581;SDS011;52231;40.090;18.348;2024-01-15T14:55:09;24.27;;;7.15;;
65581;SDS011;52231;40.090;18.348;2024-01-15T14:57:38;25.52;;;8.93;;
65581;SDS011;52231;40.090;18.348;2024-01-15T15:00:06;24.23;;;9.23;;
65581;SDS011;52231;40.090;18.348;2024-01-15T15:02:35;23.02;;;10.52;;
65581;SDS011;52231;40.090;18.348;2024-01-15T15:05:05;34.95;;;13.27;;
65581;SDS011;52231;40.090;18.348;2024-01-15T15:07:34;30.23;;;12.77;;
65581;SDS011;52231;40.090;18.348;2024-01-15T15:10:04;26.15;;;11.32;;
65581;SDS011;52231;40.090;18.348;2024-01-15T15:12:33;34.88;;;11.32;;
65581;SDS011;52231;40.090;18.348;2024-01-15T15:15:02;25.90;;;10.85;;
65581;SDS011;52231;40.090;18.348;2024-01-15T15:17:33;26.63;;;8.57;;